createdAt,value
2018-12-21T00:02:57.122Z,67.96
2018-12-21T00:05:23.323Z,67.46
2018-12-21T00:07:49.544Z,67.32
2018-12-21T00:10:15.859Z,66.96
2018-12-21T00:12:41.928Z,67.10
2018-12-21T00:15:08.233Z,67.17
2018-12-21T00:17:34.937Z,66.68
2018-12-21T00:20:01.264Z,66.68
2018-12-21T00:22:27.482Z,66.37
2018-12-21T00:24:53.570Z,65.89
2018-12-21T00:27:19.710Z,65.84
2018-12-21T00:29:45.883Z,66.05
2018-12-21T00:32:18.137Z,65.10
2018-12-21T00:34:50.276Z,65.22
2018-12-21T00:37:22.679Z,65.03
2018-12-21T00:39:54.818Z,64.86
2018-12-21T00:42:23.131Z,65.01
2018-12-21T00:44:51.346Z,65.25
2018-12-21T00:47:18.072Z,65.26
2018-12-21T00:49:44.183Z,64.52
2018-12-21T00:52:10.265Z,65.05
2018-12-21T00:54:36.377Z,64.85
2018-12-21T00:57:02.822Z,64.66
2018-12-21T00:59:29.026Z,64.88
2018-12-21T01:01:55.307Z,65.06
2018-12-21T01:04:21.550Z,65.12
2018-12-21T01:06:47.745Z,64.63
2018-12-21T01:09:13.920Z,64.92
2018-12-21T01:11:40.136Z,64.65
2018-12-21T01:14:06.418Z,64.47
2018-12-21T01:16:32.597Z,64.63
2018-12-21T01:18:58.793Z,64.66
2018-12-21T01:21:24.850Z,64.62
2018-12-21T01:23:51.248Z,64.56
2018-12-21T01:26:17.346Z,64.60
2018-12-21T01:28:43.472Z,64.93
2018-12-21T01:31:09.651Z,64.50
2018-12-21T01:33:35.952Z,64.22
2018-12-21T01:36:02.252Z,64.41
2018-12-21T01:38:28.422Z,64.13
2018-12-21T01:40:54.475Z,63.90
2018-12-21T01:43:20.745Z,64.04
2018-12-21T01:45:47.054Z,63.66
2018-12-21T01:48:13.249Z,63.71
2018-12-21T01:50:39.452Z,63.99
2018-12-21T01:53:06.278Z,63.83
2018-12-21T01:55:32.525Z,63.70
2018-12-21T01:57:58.829Z,64.16
2018-12-21T02:00:25.176Z,64.33
2018-12-21T02:02:51.408Z,64.07
2018-12-21T02:05:17.608Z,64.11
2018-12-21T02:07:43.929Z,64.87
2018-12-21T02:10:10.342Z,64.88
2018-12-21T02:12:43.705Z,64.27
2018-12-21T02:15:09.901Z,64.92
2018-12-21T02:17:36.170Z,64.07
2018-12-21T02:20:03.198Z,64.23
2018-12-21T02:22:29.390Z,64.88
2018-12-21T02:24:55.581Z,64.71
2018-12-21T02:27:21.641Z,65.36
2018-12-21T02:29:47.831Z,64.95
2018-12-21T02:32:14.368Z,65.65
2018-12-21T02:34:40.494Z,65.69
2018-12-21T02:37:06.807Z,67.10
2018-12-21T02:39:33.082Z,67.89
2018-12-21T02:41:59.533Z,67.62
2018-12-21T02:44:25.731Z,67.18
2018-12-21T02:46:51.957Z,67.41
2018-12-21T02:49:18.045Z,67.91
2018-12-21T02:51:44.178Z,68.24
2018-12-21T02:54:10.274Z,68.20
2018-12-21T02:56:36.494Z,68.75
2018-12-21T02:59:02.824Z,68.80
2018-12-21T03:01:29.141Z,69.12
2018-12-21T03:03:55.210Z,69.06
2018-12-21T03:06:21.418Z,68.63
2018-12-21T03:08:47.596Z,69.05
2018-12-21T03:11:13.829Z,68.98
2018-12-21T03:13:40.015Z,69.71
2018-12-21T03:16:06.320Z,69.13
2018-12-21T03:18:32.517Z,69.58
2018-12-21T03:20:58.828Z,69.28
2018-12-21T03:23:24.909Z,69.31
2018-12-21T03:25:51.080Z,69.22
2018-12-21T03:28:17.134Z,69.67
2018-12-21T03:30:43.346Z,69.24
2018-12-21T03:33:09.560Z,69.67
2018-12-21T03:35:35.928Z,69.40
2018-12-21T03:38:02.133Z,69.52
2018-12-21T03:40:28.341Z,69.03
2018-12-21T03:42:54.406Z,68.72
2018-12-21T03:45:20.681Z,68.35
2018-12-21T03:47:46.958Z,68.69
2018-12-21T03:50:13.140Z,68.37
2018-12-21T03:52:39.332Z,68.33
2018-12-21T03:55:05.746Z,67.79
2018-12-21T03:57:32.017Z,67.99
2018-12-21T03:59:58.074Z,67.79
2018-12-21T04:02:24.171Z,68.01
2018-12-21T04:04:50.388Z,67.39
2018-12-21T04:07:16.481Z,67.36
2018-12-21T04:09:42.582Z,67.17
2018-12-21T04:12:08.806Z,67.29
2018-12-21T04:14:34.878Z,67.75
2018-12-21T04:17:00.999Z,67.50
2018-12-21T04:19:27.084Z,67.23
2018-12-21T04:21:53.312Z,67.48
2018-12-21T04:24:19.603Z,67.98
2018-12-21T04:26:45.808Z,67.85
2018-12-21T04:29:11.895Z,67.93
2018-12-21T04:31:38.201Z,67.80
2018-12-21T04:34:04.270Z,67.96
2018-12-21T04:36:30.376Z,67.83
2018-12-21T04:38:56.471Z,67.36
2018-12-21T04:41:22.556Z,67.54
2018-12-21T04:43:48.889Z,67.72
2018-12-21T04:46:15.061Z,67.29
2018-12-21T04:48:41.179Z,67.79
2018-12-21T04:51:07.471Z,67.78
2018-12-21T04:53:33.724Z,67.83
2018-12-21T04:55:59.936Z,67.95
2018-12-21T04:58:26.141Z,67.84
2018-12-21T05:00:52.343Z,67.96
2018-12-21T05:03:18.453Z,68.29
2018-12-21T05:05:44.560Z,68.23
2018-12-21T05:08:10.912Z,68.12
2018-12-21T05:10:37.533Z,67.61
2018-12-21T05:13:03.843Z,67.05
2018-12-21T05:15:30.089Z,67.13
2018-12-21T05:17:56.354Z,66.64
2018-12-21T05:20:22.806Z,66.32
2018-12-21T05:22:52.405Z,66.17
2018-12-21T05:25:17.524Z,66.22
2018-12-21T05:27:43.884Z,66.17
2018-12-21T05:30:10.092Z,65.87
2018-12-21T05:32:36.474Z,66.20
2018-12-21T05:35:03.069Z,66.25
2018-12-21T05:37:29.260Z,65.97
2018-12-21T05:39:55.460Z,65.78
2018-12-21T05:42:21.672Z,66.26
2018-12-21T05:44:47.771Z,65.94
2018-12-21T05:47:13.905Z,66.06
2018-12-21T05:49:39.964Z,65.66
2018-12-21T05:52:06.228Z,66.17
2018-12-21T05:54:32.880Z,66.02
2018-12-21T05:56:59.035Z,65.97
2018-12-21T05:59:25.224Z,65.78
2018-12-21T06:01:51.462Z,65.36
2018-12-21T06:04:17.649Z,65.60
2018-12-21T06:06:43.949Z,65.20
2018-12-21T06:09:10.051Z,65.34
2018-12-21T06:11:36.329Z,65.27
2018-12-21T06:14:02.482Z,64.91
2018-12-21T06:16:28.814Z,64.92
2018-12-21T06:18:55.722Z,64.66
2018-12-21T06:21:21.901Z,64.69
2018-12-21T06:23:48.039Z,64.64
2018-12-21T06:26:14.417Z,64.50
2018-12-21T06:28:40.535Z,64.29
2018-12-21T06:31:06.626Z,64.56
2018-12-21T06:33:32.741Z,64.34
2018-12-21T06:35:58.940Z,64.09
2018-12-21T06:38:25.043Z,64.21
2018-12-21T06:40:51.120Z,64.18
2018-12-21T06:43:17.338Z,64.66
2018-12-21T06:45:43.436Z,64.12
2018-12-21T06:48:09.760Z,63.91
2018-12-21T06:50:36.009Z,63.89
2018-12-21T06:53:02.362Z,63.88
2018-12-21T06:55:28.685Z,63.65
2018-12-21T06:57:54.899Z,63.58
2018-12-21T07:00:21.379Z,63.46
2018-12-21T07:02:47.768Z,63.47
2018-12-21T07:05:14.063Z,63.92
2018-12-21T07:07:40.369Z,63.21
2018-12-21T07:10:08.676Z,63.57
2018-12-21T07:12:34.851Z,63.45
2018-12-21T07:15:01.001Z,63.02
2018-12-21T07:17:27.221Z,63.18
2018-12-21T07:19:53.390Z,63.10
2018-12-21T07:22:19.580Z,63.31
2018-12-21T07:24:46.037Z,63.36
2018-12-21T07:27:12.165Z,62.93
2018-12-21T07:29:38.423Z,62.80
2018-12-21T07:32:04.725Z,62.05
2018-12-21T07:34:30.951Z,62.66
2018-12-21T07:36:57.047Z,63.03
2018-12-21T07:39:23.266Z,62.32
2018-12-21T07:41:49.339Z,62.90
2018-12-21T07:44:15.441Z,62.27
2018-12-21T07:46:41.539Z,61.79
2018-12-21T07:49:07.739Z,62.46
2018-12-21T07:51:33.971Z,62.48
2018-12-21T07:54:00.187Z,62.35
2018-12-21T07:56:26.365Z,62.00
2018-12-21T07:58:57.125Z,62.44
2018-12-21T08:01:20.744Z,62.16
2018-12-21T08:03:46.901Z,61.76
2018-12-21T08:06:13.002Z,61.85
2018-12-21T08:08:39.317Z,61.07
2018-12-21T08:11:05.556Z,60.97
2018-12-21T08:13:31.828Z,60.56
2018-12-21T08:15:58.035Z,60.55
2018-12-21T08:18:24.238Z,60.22
2018-12-21T08:20:50.470Z,60.06
2018-12-21T08:23:16.686Z,59.41
2018-12-21T08:25:42.890Z,59.94
2018-12-21T08:28:09.076Z,59.34
2018-12-21T08:30:35.184Z,59.06
2018-12-21T08:33:01.304Z,58.92
2018-12-21T08:35:27.531Z,58.96
2018-12-21T08:38:00.564Z,59.15
2018-12-21T08:40:26.893Z,58.98
2018-12-21T08:42:53.173Z,59.39
2018-12-21T08:45:19.415Z,59.77
2018-12-21T08:47:52.748Z,59.18
2018-12-21T08:50:19.091Z,59.41
2018-12-21T08:52:45.469Z,58.64
2018-12-21T08:55:11.989Z,58.91
2018-12-21T08:57:41.691Z,58.30
2018-12-21T09:00:09.949Z,58.48
2018-12-21T09:02:36.056Z,57.54
2018-12-21T09:05:02.654Z,57.11
2018-12-21T09:07:28.782Z,56.40
2018-12-21T09:09:54.873Z,56.85
2018-12-21T09:12:21.064Z,56.79
2018-12-21T09:14:47.410Z,56.67
2018-12-21T09:17:13.621Z,55.83
2018-12-21T09:19:39.712Z,55.05
2018-12-21T09:22:05.805Z,55.40
2018-12-21T09:24:32.008Z,56.38
2018-12-21T09:26:58.181Z,54.96
2018-12-21T09:29:24.267Z,55.02
2018-12-21T09:31:50.478Z,55.49
2018-12-21T09:34:16.609Z,55.57
2018-12-21T09:36:43.139Z,55.28
2018-12-21T09:39:09.542Z,54.91
2018-12-21T09:41:35.893Z,55.07
2018-12-21T09:44:02.006Z,55.78
2018-12-21T09:46:28.255Z,55.65
2018-12-21T09:48:54.477Z,55.61
2018-12-21T09:51:20.861Z,55.35
2018-12-21T09:53:46.976Z,55.22
2018-12-21T09:56:13.193Z,55.00
2018-12-21T09:58:39.272Z,54.88
2018-12-21T10:04:05.430Z,54.85
2018-12-21T10:06:31.516Z,54.47
2018-12-21T10:08:57.856Z,55.17
2018-12-21T10:11:24.034Z,55.95
2018-12-21T10:13:50.133Z,55.19
2018-12-21T10:16:16.309Z,55.01
2018-12-21T10:18:42.430Z,54.84
2018-12-21T10:21:08.544Z,55.59
2018-12-21T10:23:34.657Z,55.84
2018-12-21T10:26:00.771Z,57.36
2018-12-21T10:28:26.847Z,61.54
2018-12-21T10:30:53.184Z,64.37
2018-12-21T10:33:19.613Z,65.92
2018-12-21T10:35:46.075Z,69.21
2018-12-21T10:38:12.141Z,71.08
2018-12-21T10:40:38.321Z,70.59
2018-12-21T10:43:04.497Z,71.69
2018-12-21T10:45:30.702Z,72.70
2018-12-21T10:47:56.926Z,74.02
2018-12-21T10:50:23.245Z,72.91
2018-12-21T10:52:49.475Z,72.35
2018-12-21T10:55:15.908Z,70.35
2018-12-21T10:57:42.303Z,70.60
2018-12-21T11:00:09.134Z,70.02
2018-12-21T11:02:35.267Z,70.11
2018-12-21T11:05:01.801Z,68.85
2018-12-21T11:07:27.898Z,68.46
2018-12-21T11:09:53.973Z,68.97
2018-12-21T11:12:20.177Z,67.71
2018-12-21T11:14:46.290Z,69.21
2018-12-21T11:17:12.620Z,67.20
2018-12-21T11:19:38.720Z,67.06
2018-12-21T11:22:04.829Z,67.27
2018-12-21T11:24:35.417Z,65.49
2018-12-21T11:26:59.318Z,64.73
2018-12-21T11:29:25.413Z,65.03
2018-12-21T11:31:51.737Z,65.75
2018-12-21T11:34:17.850Z,62.95
2018-12-21T11:36:44.066Z,63.43
2018-12-21T11:39:10.289Z,64.32
2018-12-21T11:41:36.517Z,63.68
2018-12-21T11:44:02.858Z,63.49
2018-12-21T11:46:29.080Z,61.00
2018-12-21T11:48:55.822Z,62.91
2018-12-21T11:51:22.125Z,61.87
2018-12-21T11:53:48.209Z,63.85
2018-12-21T11:56:14.339Z,64.73
2018-12-21T11:58:40.537Z,65.30
2018-12-21T12:01:06.630Z,66.09
2018-12-21T12:03:32.784Z,65.18
2018-12-21T12:05:58.991Z,65.74
2018-12-21T12:08:26.067Z,66.23
2018-12-21T12:10:52.141Z,65.66
2018-12-21T12:13:18.243Z,64.96
2018-12-21T12:15:44.349Z,65.94
2018-12-21T12:18:10.639Z,66.20
2018-12-21T12:20:36.940Z,65.78
2018-12-21T12:23:03.462Z,66.04
2018-12-21T12:25:29.767Z,66.12
2018-12-21T12:27:56.009Z,64.58
2018-12-21T12:30:22.195Z,65.88
2018-12-21T12:32:48.317Z,66.47
2018-12-21T12:35:14.622Z,67.21
2018-12-21T12:37:40.740Z,66.82
2018-12-21T12:40:07.222Z,66.89
2018-12-21T12:42:33.625Z,67.22
2018-12-21T12:44:59.852Z,67.60
2018-12-21T12:47:26.085Z,68.75
2018-12-21T12:49:52.337Z,70.01
2018-12-21T12:52:18.633Z,68.61
2018-12-21T12:54:44.839Z,71.51
2018-12-21T12:57:11.070Z,71.41
2018-12-21T12:59:37.178Z,71.98
2018-12-21T13:02:03.473Z,73.52
2018-12-21T13:04:29.606Z,72.71
2018-12-21T13:06:55.770Z,73.10
2018-12-21T13:09:21.964Z,72.31
2018-12-21T13:11:49.557Z,73.67
2018-12-21T13:14:16.611Z,72.76
2018-12-21T13:16:44.819Z,72.73
2018-12-21T13:19:11.177Z,71.76
2018-12-21T13:21:37.624Z,72.14
2018-12-21T13:24:03.765Z,72.33
2018-12-21T13:26:29.944Z,72.53
2018-12-21T13:28:56.116Z,71.68
2018-12-21T13:31:22.686Z,71.59
2018-12-21T13:33:48.798Z,70.71
2018-12-21T13:36:14.986Z,70.69
2018-12-21T13:38:41.987Z,70.26
2018-12-21T13:41:08.458Z,69.58
2018-12-21T13:43:35.791Z,69.73
2018-12-21T13:46:02.044Z,69.11
2018-12-21T13:48:28.462Z,68.93
2018-12-21T13:50:54.582Z,68.19
2018-12-21T13:53:20.822Z,67.23
2018-12-21T13:55:47.905Z,68.80
2018-12-21T13:58:15.283Z,68.37
2018-12-21T14:00:41.495Z,68.47
2018-12-21T14:03:08.313Z,67.58
2018-12-21T14:05:34.487Z,67.59
2018-12-21T14:08:01.931Z,66.33
2018-12-21T14:10:28.931Z,66.66
2018-12-21T14:12:56.566Z,67.46
2018-12-21T14:15:24.624Z,66.75
2018-12-21T14:17:51.309Z,66.90
2018-12-21T14:20:18.487Z,67.29
2018-12-21T14:22:45.622Z,65.48
2018-12-21T14:25:12.169Z,66.62
2018-12-21T14:27:39.378Z,66.79
2018-12-21T14:30:07.013Z,66.95
2018-12-21T14:32:33.277Z,67.61
2018-12-21T14:35:00.782Z,67.71
2018-12-21T14:37:26.858Z,67.19
2018-12-21T14:39:53.170Z,65.75
2018-12-21T14:42:21.124Z,67.20
2018-12-21T14:44:47.457Z,67.86
2018-12-21T14:47:13.580Z,68.34
2018-12-21T14:49:40.833Z,67.69
2018-12-21T14:52:08.598Z,68.48
2018-12-21T14:54:34.984Z,69.48
2018-12-21T14:57:03.041Z,69.25
2018-12-21T14:59:29.553Z,69.25
2018-12-21T15:01:55.738Z,69.10
2018-12-21T15:04:23.864Z,69.31
2018-12-21T15:06:50.269Z,69.29
2018-12-21T15:09:16.398Z,69.94
2018-12-21T15:11:42.905Z,69.67
2018-12-21T15:14:08.994Z,69.19
2018-12-21T15:16:36.795Z,70.05
2018-12-21T15:19:03.898Z,70.15
2018-12-21T15:21:30.203Z,69.27
2018-12-21T15:23:56.613Z,69.17
2018-12-21T15:26:22.714Z,69.26
2018-12-21T15:28:49.736Z,67.11
2018-12-21T15:31:15.970Z,67.69
2018-12-21T15:33:42.707Z,67.08
2018-12-21T15:36:09.822Z,65.57
2018-12-21T15:38:35.920Z,65.65
2018-12-21T15:41:03.021Z,65.13
2018-12-21T15:43:29.717Z,65.18
2018-12-21T15:45:55.941Z,65.63
2018-12-21T15:48:22.055Z,65.06
2018-12-21T15:50:48.320Z,66.02
2018-12-21T15:53:15.459Z,66.35
2018-12-21T15:55:41.579Z,66.22
2018-12-21T15:58:07.745Z,65.73
2018-12-21T16:00:33.952Z,65.90
2018-12-21T16:03:00.646Z,65.11
2018-12-21T16:05:26.932Z,65.54
2018-12-21T16:07:54.663Z,65.38
2018-12-21T16:10:20.825Z,65.97
2018-12-21T16:12:47.056Z,66.00
2018-12-21T16:15:13.411Z,67.20
2018-12-21T16:17:39.566Z,67.12
2018-12-21T16:20:09.619Z,67.14
2018-12-21T16:22:42.345Z,67.44
2018-12-21T16:25:05.178Z,67.91
2018-12-21T16:27:31.289Z,68.09
2018-12-21T16:29:57.405Z,68.37
2018-12-21T16:32:23.560Z,68.29
2018-12-21T16:34:49.652Z,68.32
2018-12-21T16:37:15.807Z,68.93
2018-12-21T16:39:42.040Z,69.06
2018-12-21T16:42:08.803Z,69.48
2018-12-21T16:44:36.015Z,69.54
2018-12-21T16:47:02.450Z,69.18
2018-12-21T16:49:28.700Z,68.82
2018-12-21T16:51:55.233Z,67.96
2018-12-21T16:54:22.617Z,68.08
2018-12-21T16:56:48.830Z,68.13
2018-12-21T16:59:15.702Z,68.46
2018-12-21T17:01:42.709Z,68.10
2018-12-21T17:04:09.036Z,67.65
2018-12-21T17:06:37.462Z,70.04
2018-12-21T17:09:06.278Z,69.85
2018-12-21T17:11:32.461Z,70.34
2018-12-21T17:13:58.663Z,71.08
2018-12-21T17:16:24.907Z,71.28
2018-12-21T17:18:51.321Z,71.44
2018-12-21T17:21:17.529Z,70.93
2018-12-21T17:23:43.659Z,71.44
2018-12-21T17:26:09.835Z,70.78
2018-12-21T17:28:36.060Z,70.25
2018-12-21T17:31:02.403Z,69.84
2018-12-21T17:33:28.616Z,69.44
2018-12-21T17:35:54.764Z,67.91
2018-12-21T17:38:21.032Z,68.60
2018-12-21T17:40:48.259Z,67.78
2018-12-21T17:43:14.495Z,67.44
2018-12-21T17:45:41.623Z,66.64
2018-12-21T17:48:09.585Z,67.06
2018-12-21T17:50:37.525Z,66.49
2018-12-21T17:53:03.961Z,66.69
2018-12-21T17:55:30.746Z,66.05
2018-12-21T17:57:56.911Z,65.89
2018-12-21T18:00:23.290Z,66.02
2018-12-21T18:02:50.954Z,65.66
2018-12-21T18:05:18.975Z,66.23
2018-12-21T18:07:45.322Z,65.96
2018-12-21T18:10:11.620Z,66.26
2018-12-21T18:12:38.712Z,66.12
2018-12-21T18:15:07.554Z,65.84
2018-12-21T18:17:33.766Z,66.19
2018-12-21T18:20:00.921Z,65.17
2018-12-21T18:22:27.125Z,65.19
2018-12-21T18:24:53.620Z,65.35
2018-12-21T18:27:19.863Z,64.91
2018-12-21T18:29:47.374Z,65.08
2018-12-21T18:32:16.437Z,64.75
2018-12-21T18:34:42.545Z,65.14
2018-12-21T18:37:08.966Z,64.33
2018-12-21T18:39:35.130Z,64.81
2018-12-21T18:42:01.671Z,64.40
2018-12-21T18:44:28.038Z,64.28
2018-12-21T18:46:54.211Z,64.39
2018-12-21T18:49:21.213Z,64.27
2018-12-21T18:51:47.447Z,64.19
2018-12-21T18:57:13.884Z,64.67
2018-12-21T18:59:40.101Z,64.88
2018-12-21T19:02:06.447Z,64.28
2018-12-21T19:04:32.653Z,64.54
2018-12-21T19:06:59.772Z,64.93
2018-12-21T19:09:26.119Z,65.07
2018-12-21T19:11:52.337Z,64.61
2018-12-21T19:14:18.670Z,65.57
2018-12-21T19:16:44.940Z,65.24
2018-12-21T19:19:11.123Z,65.20
2018-12-21T19:21:37.426Z,64.87
2018-12-21T19:24:03.760Z,64.94
2018-12-21T19:26:30.849Z,65.10
2018-12-21T19:28:57.034Z,64.35
2018-12-21T19:31:23.485Z,64.70
2018-12-21T19:33:49.991Z,64.01
2018-12-21T19:36:16.236Z,64.61
2018-12-21T19:38:42.293Z,63.96
2018-12-21T19:41:09.260Z,63.76
2018-12-21T19:43:35.365Z,63.88
2018-12-21T19:46:01.710Z,63.16
2018-12-21T19:48:29.106Z,63.09
2018-12-21T19:50:55.320Z,63.45
2018-12-21T19:53:23.391Z,62.78
2018-12-21T19:55:49.929Z,62.97
2018-12-21T19:58:23.125Z,62.22
2018-12-21T20:00:49.260Z,62.24
2018-12-21T20:03:15.845Z,62.52
2018-12-21T20:05:42.957Z,61.95
2018-12-21T20:08:09.721Z,61.18
2018-12-21T20:10:36.656Z,60.41
2018-12-21T20:13:03.116Z,60.33
2018-12-21T20:15:29.380Z,59.75
2018-12-21T20:18:02.535Z,59.63
2018-12-21T20:20:28.977Z,59.36
2018-12-21T20:22:55.579Z,58.93
2018-12-21T20:25:21.923Z,59.25
2018-12-21T20:27:48.159Z,58.93
2018-12-21T20:30:16.037Z,59.79
2018-12-21T20:32:42.216Z,59.93
2018-12-21T20:35:08.789Z,60.71
2018-12-21T20:37:35.349Z,60.79
2018-12-21T20:40:05.123Z,60.64
2018-12-21T20:42:31.237Z,60.96
2018-12-21T20:44:57.330Z,60.58
2018-12-21T20:47:23.739Z,60.74
2018-12-21T20:49:50.148Z,60.85
2018-12-21T20:52:16.388Z,60.34
2018-12-21T20:54:42.630Z,59.29
2018-12-21T20:57:09.282Z,59.53
2018-12-21T20:59:36.171Z,58.76
2018-12-21T21:02:02.536Z,59.19
2018-12-21T21:04:28.680Z,59.61
2018-12-21T21:06:54.802Z,59.81
2018-12-21T21:09:21.015Z,59.53
2018-12-21T21:11:47.262Z,60.70
2018-12-21T21:14:13.553Z,61.32
2018-12-21T21:16:39.886Z,61.90
2018-12-21T21:19:06.078Z,62.29
2018-12-21T21:21:32.341Z,61.80
2018-12-21T21:23:58.486Z,60.73
2018-12-21T21:26:24.909Z,60.50
2018-12-21T21:28:51.093Z,57.97
2018-12-21T21:31:17.589Z,56.75
2018-12-21T21:33:43.887Z,57.58
2018-12-21T21:36:09.975Z,58.40
2018-12-21T21:38:36.183Z,60.11
2018-12-21T21:41:02.375Z,61.96
2018-12-21T21:43:28.735Z,63.56
2018-12-21T21:45:54.970Z,64.46
2018-12-21T21:48:21.065Z,65.02
2018-12-21T21:50:47.350Z,65.52
2018-12-21T21:53:13.466Z,66.70
2018-12-21T21:55:39.673Z,66.91
2018-12-21T21:58:05.793Z,66.41
2018-12-21T22:00:32.727Z,66.49
2018-12-21T22:02:59.060Z,66.74
2018-12-21T22:05:25.255Z,65.47
2018-12-21T22:07:51.391Z,64.66
2018-12-21T22:10:17.705Z,63.93
2018-12-21T22:12:43.897Z,64.24
2018-12-21T22:15:10.224Z,63.06
2018-12-21T22:17:36.390Z,63.37
2018-12-21T22:20:05.978Z,63.04
2018-12-21T22:22:39.129Z,62.64
2018-12-21T22:25:05.770Z,61.51
2018-12-21T22:27:32.968Z,60.03
2018-12-21T22:29:59.189Z,60.08
2018-12-21T22:32:25.385Z,59.22
2018-12-21T22:34:51.741Z,59.58
2018-12-21T22:37:17.964Z,60.33
2018-12-21T22:39:44.176Z,60.26
2018-12-21T22:42:10.341Z,60.65
2018-12-21T22:44:36.577Z,60.29
2018-12-21T22:47:03.123Z,60.67
2018-12-21T22:49:29.208Z,61.01
2018-12-21T22:51:55.402Z,61.41
2018-12-21T22:54:21.507Z,61.28
2018-12-21T22:56:47.578Z,62.00
2018-12-21T22:59:13.885Z,62.09
2018-12-21T23:01:40.088Z,62.36
2018-12-21T23:04:06.218Z,62.43
2018-12-21T23:06:32.356Z,61.78
2018-12-21T23:08:58.556Z,61.95
2018-12-21T23:11:25.180Z,61.59
2018-12-21T23:13:52.144Z,62.06
2018-12-21T23:16:18.365Z,61.88
2018-12-21T23:18:44.521Z,61.74
2018-12-21T23:21:10.749Z,61.05
2018-12-21T23:23:36.887Z,61.77
2018-12-21T23:26:03.095Z,62.11
2018-12-21T23:28:29.429Z,61.43
2018-12-21T23:30:55.523Z,61.18
2018-12-21T23:33:21.872Z,59.82
2018-12-21T23:35:48.088Z,59.46
2018-12-21T23:38:14.284Z,58.71
2018-12-21T23:40:40.602Z,58.65
2018-12-21T23:43:06.783Z,58.67
2018-12-21T23:45:32.916Z,58.15
2018-12-21T23:47:59.198Z,58.11
2018-12-21T23:50:25.478Z,59.32
2018-12-21T23:52:51.668Z,59.20
2018-12-21T23:55:17.796Z,58.91
2018-12-21T23:57:43.895Z,59.28
